sensor_id;sensor_type;location;lat;lon;timestamp;P1;durP1;ratioP1;P2;durP2;ratioP2
73980;SDS011;62348;51.412;5.436;2023-07-13T00:01:14;7.10;;;1.98;;
73980;SDS011;62348;51.412;5.436;2023-07-13T00:03:41;6.97;;;2.03;;
73980;SDS011;62348;51.412;5.436;2023-07-13T00:06:06;3.55;;;1.77;;
73980;SDS011;62348;51.412;5.436;2023-07-13T00:08:33;7.18;;;2.13;;
73980;SDS011;62348;51.412;5.436;2023-07-13T00:11:00;11.43;;;2.05;;
73980;SDS011;62348;51.412;5.436;2023-07-13T00:13:26;7.15;;;1.95;;
73980;SDS011;62348;51.412;5.436;2023-07-13T00:15:52;5.85;;;1.80;;
73980;SDS011;62348;51.412;5.436;2023-07-13T00:18:18;7.53;;;2.05;;
73980;SDS011;62348;51.412;5.436;2023-07-13T00:20:44;9.30;;;1.88;;
73980;SDS011;62348;51.412;5.436;2023-07-13T00:23:10;8.60;;;2.60;;
73980;SDS011;62348;51.412;5.436;2023-07-13T00:25:35;4.22;;;1.48;;
73980;SDS011;62348;51.412;5.436;2023-07-13T00:28:01;6.07;;;1.67;;
73980;SDS011;62348;51.412;5.436;2023-07-13T00:30:27;4.50;;;1.58;;
73980;SDS011;62348;51.412;5.436;2023-07-13T00:32:52;6.55;;;1.77;;
73980;SDS011;62348;51.412;5.436;2023-07-13T00:35:17;7.88;;;1.92;;
73980;SDS011;62348;51.412;5.436;2023-07-13T00:37:43;6.50;;;1.88;;
73980;SDS011;62348;51.412;5.436;2023-07-13T00:40:10;7.32;;;1.65;;
73980;SDS011;62348;51.412;5.436;2023-07-13T00:42:37;6.95;;;1.80;;
73980;SDS011;62348;51.412;5.436;2023-07-13T00:47:48;7.13;;;2.00;;
73980;SDS011;62348;51.412;5.436;2023-07-13T00:50:14;6.10;;;2.25;;
73980;SDS011;62348;51.412;5.436;2023-07-13T00:52:43;7.35;;;2.10;;
73980;SDS011;62348;51.412;5.436;2023-07-13T00:55:11;4.30;;;1.65;;
73980;SDS011;62348;51.412;5.436;2023-07-13T00:57:39;5.22;;;1.80;;
73980;SDS011;62348;51.412;5.436;2023-07-13T01:00:06;3.85;;;1.70;;
73980;SDS011;62348;51.412;5.436;2023-07-13T01:02:34;5.55;;;1.58;;
73980;SDS011;62348;51.412;5.436;2023-07-13T01:05:12;6.25;;;1.65;;
73980;SDS011;62348;51.412;5.436;2023-07-13T01:07:41;7.00;;;1.73;;
73980;SDS011;62348;51.412;5.436;2023-07-13T01:10:09;7.90;;;1.83;;
73980;SDS011;62348;51.412;5.436;2023-07-13T01:12:36;7.45;;;2.50;;
73980;SDS011;62348;51.412;5.436;2023-07-13T01:15:02;4.80;;;1.90;;
73980;SDS011;62348;51.412;5.436;2023-07-13T01:17:29;5.85;;;2.15;;
73980;SDS011;62348;51.412;5.436;2023-07-13T01:19:58;6.88;;;2.00;;
73980;SDS011;62348;51.412;5.436;2023-07-13T01:22:25;5.32;;;2.50;;
73980;SDS011;62348;51.412;5.436;2023-07-13T01:24:52;4.72;;;2.08;;
73980;SDS011;62348;51.412;5.436;2023-07-13T01:27:23;7.90;;;1.92;;
73980;SDS011;62348;51.412;5.436;2023-07-13T01:29:50;7.20;;;2.08;;
73980;SDS011;62348;51.412;5.436;2023-07-13T01:32:21;7.28;;;2.25;;
73980;SDS011;62348;51.412;5.436;2023-07-13T01:34:52;6.13;;;2.58;;
73980;SDS011;62348;51.412;5.436;2023-07-13T01:37:26;7.40;;;1.85;;
73980;SDS011;62348;51.412;5.436;2023-07-13T01:39:52;8.20;;;2.00;;
73980;SDS011;62348;51.412;5.436;2023-07-13T01:42:18;7.35;;;2.10;;
73980;SDS011;62348;51.412;5.436;2023-07-13T01:44:44;5.93;;;2.88;;
73980;SDS011;62348;51.412;5.436;2023-07-13T01:47:09;6.30;;;2.17;;
73980;SDS011;62348;51.412;5.436;2023-07-13T01:49:35;7.13;;;2.40;;
73980;SDS011;62348;51.412;5.436;2023-07-13T01:52:02;5.35;;;2.45;;
73980;SDS011;62348;51.412;5.436;2023-07-13T01:54:28;10.50;;;2.03;;
73980;SDS011;62348;51.412;5.436;2023-07-13T01:56:53;9.38;;;2.42;;
73980;SDS011;62348;51.412;5.436;2023-07-13T01:59:19;6.78;;;2.38;;
73980;SDS011;62348;51.412;5.436;2023-07-13T02:01:44;4.90;;;2.33;;
73980;SDS011;62348;51.412;5.436;2023-07-13T02:04:09;6.22;;;2.30;;
73980;SDS011;62348;51.412;5.436;2023-07-13T02:06:35;8.65;;;2.20;;
73980;SDS011;62348;51.412;5.436;2023-07-13T02:09:01;6.68;;;2.20;;
73980;SDS011;62348;51.412;5.436;2023-07-13T02:11:26;8.18;;;2.30;;
73980;SDS011;62348;51.412;5.436;2023-07-13T02:13:57;7.07;;;2.42;;
73980;SDS011;62348;51.412;5.436;2023-07-13T02:16:24;10.00;;;2.33;;
73980;SDS011;62348;51.412;5.436;2023-07-13T02:18:49;4.10;;;1.92;;
73980;SDS011;62348;51.412;5.436;2023-07-13T02:21:17;4.82;;;2.00;;
73980;SDS011;62348;51.412;5.436;2023-07-13T02:23:42;5.40;;;2.00;;
73980;SDS011;62348;51.412;5.436;2023-07-13T02:26:08;7.28;;;2.33;;
73980;SDS011;62348;51.412;5.436;2023-07-13T02:28:35;6.45;;;2.30;;
73980;SDS011;62348;51.412;5.436;2023-07-13T02:31:10;8.02;;;2.63;;
73980;SDS011;62348;51.412;5.436;2023-07-13T02:33:37;7.35;;;2.08;;
73980;SDS011;62348;51.412;5.436;2023-07-13T02:36:03;7.25;;;2.22;;
73980;SDS011;62348;51.412;5.436;2023-07-13T02:38:30;6.25;;;2.17;;
73980;SDS011;62348;51.412;5.436;2023-07-13T02:40:58;6.63;;;2.20;;
73980;SDS011;62348;51.412;5.436;2023-07-13T02:43:25;9.70;;;2.30;;
73980;SDS011;62348;51.412;5.436;2023-07-13T02:45:50;8.60;;;2.58;;
73980;SDS011;62348;51.412;5.436;2023-07-13T02:48:16;7.63;;;2.22;;
73980;SDS011;62348;51.412;5.436;2023-07-13T02:50:41;10.93;;;2.60;;
73980;SDS011;62348;51.412;5.436;2023-07-13T02:53:07;6.60;;;3.15;;
73980;SDS011;62348;51.412;5.436;2023-07-13T02:55:32;4.80;;;2.05;;
73980;SDS011;62348;51.412;5.436;2023-07-13T02:57:57;4.78;;;2.67;;
73980;SDS011;62348;51.412;5.436;2023-07-13T03:00:23;6.88;;;2.53;;
73980;SDS011;62348;51.412;5.436;2023-07-13T03:02:49;13.60;;;2.42;;
73980;SDS011;62348;51.412;5.436;2023-07-13T03:05:14;7.68;;;2.78;;
73980;SDS011;62348;51.412;5.436;2023-07-13T03:07:41;5.43;;;2.03;;
73980;SDS011;62348;51.412;5.436;2023-07-13T03:10:07;7.97;;;2.15;;
73980;SDS011;62348;51.412;5.436;2023-07-13T03:12:34;9.70;;;2.30;;
73980;SDS011;62348;51.412;5.436;2023-07-13T03:14:59;9.20;;;3.08;;
73980;SDS011;62348;51.412;5.436;2023-07-13T03:17:24;8.77;;;2.50;;
73980;SDS011;62348;51.412;5.436;2023-07-13T03:19:50;7.30;;;2.45;;
73980;SDS011;62348;51.412;5.436;2023-07-13T03:22:16;10.38;;;2.75;;
73980;SDS011;62348;51.412;5.436;2023-07-13T03:24:42;9.50;;;2.75;;
73980;SDS011;62348;51.412;5.436;2023-07-13T03:27:08;7.95;;;2.30;;
73980;SDS011;62348;51.412;5.436;2023-07-13T03:29:33;9.60;;;2.80;;
73980;SDS011;62348;51.412;5.436;2023-07-13T03:31:59;9.43;;;3.25;;
73980;SDS011;62348;51.412;5.436;2023-07-13T03:34:24;7.18;;;2.30;;
73980;SDS011;62348;51.412;5.436;2023-07-13T03:36:50;7.18;;;2.90;;
73980;SDS011;62348;51.412;5.436;2023-07-13T03:39:15;9.07;;;2.50;;
73980;SDS011;62348;51.412;5.436;2023-07-13T03:41:41;9.48;;;3.35;;
73980;SDS011;62348;51.412;5.436;2023-07-13T03:44:06;7.97;;;2.35;;
73980;SDS011;62348;51.412;5.436;2023-07-13T03:46:32;11.85;;;2.90;;
73980;SDS011;62348;51.412;5.436;2023-07-13T03:48:58;8.02;;;3.00;;
73980;SDS011;62348;51.412;5.436;2023-07-13T03:51:24;9.05;;;3.00;;
73980;SDS011;62348;51.412;5.436;2023-07-13T03:53:49;7.95;;;2.75;;
73980;SDS011;62348;51.412;5.436;2023-07-13T03:56:16;6.05;;;2.25;;
73980;SDS011;62348;51.412;5.436;2023-07-13T03:58:43;9.25;;;3.53;;
73980;SDS011;62348;51.412;5.436;2023-07-13T04:01:11;7.03;;;2.72;;
73980;SDS011;62348;51.412;5.436;2023-07-13T04:03:38;7.13;;;2.67;;
73980;SDS011;62348;51.412;5.436;2023-07-13T04:06:04;9.13;;;3.35;;
73980;SDS011;62348;51.412;5.436;2023-07-13T04:08:32;8.95;;;3.28;;
73980;SDS011;62348;51.412;5.436;2023-07-13T04:10:59;20.33;;;3.38;;
73980;SDS011;62348;51.412;5.436;2023-07-13T04:13:25;10.25;;;3.40;;
73980;SDS011;62348;51.412;5.436;2023-07-13T04:15:50;8.10;;;3.13;;
73980;SDS011;62348;51.412;5.436;2023-07-13T04:18:16;11.75;;;3.80;;
73980;SDS011;62348;51.412;5.436;2023-07-13T04:20:42;11.13;;;4.40;;
73980;SDS011;62348;51.412;5.436;2023-07-13T04:23:07;11.48;;;4.35;;
73980;SDS011;62348;51.412;5.436;2023-07-13T04:25:33;10.90;;;3.90;;
73980;SDS011;62348;51.412;5.436;2023-07-13T04:27:58;10.82;;;4.38;;
73980;SDS011;62348;51.412;5.436;2023-07-13T04:30:24;12.27;;;4.20;;
73980;SDS011;62348;51.412;5.436;2023-07-13T04:32:50;15.55;;;4.30;;
73980;SDS011;62348;51.412;5.436;2023-07-13T04:35:17;8.80;;;4.05;;
73980;SDS011;62348;51.412;5.436;2023-07-13T04:37:45;9.32;;;4.65;;
73980;SDS011;62348;51.412;5.436;2023-07-13T04:40:11;16.67;;;4.97;;
73980;SDS011;62348;51.412;5.436;2023-07-13T04:42:36;12.40;;;5.30;;
73980;SDS011;62348;51.412;5.436;2023-07-13T04:45:02;15.60;;;5.32;;
73980;SDS011;62348;51.412;5.436;2023-07-13T04:47:29;13.38;;;4.80;;
73980;SDS011;62348;51.412;5.436;2023-07-13T04:49:55;15.60;;;5.35;;
73980;SDS011;62348;51.412;5.436;2023-07-13T04:52:22;14.48;;;5.88;;
73980;SDS011;62348;51.412;5.436;2023-07-13T04:54:48;13.98;;;5.28;;
73980;SDS011;62348;51.412;5.436;2023-07-13T04:57:13;15.32;;;6.07;;
73980;SDS011;62348;51.412;5.436;2023-07-13T04:59:38;21.50;;;6.13;;
73980;SDS011;62348;51.412;5.436;2023-07-13T05:02:04;15.02;;;5.85;;
73980;SDS011;62348;51.412;5.436;2023-07-13T05:04:30;20.83;;;7.05;;
73980;SDS011;62348;51.412;5.436;2023-07-13T05:06:55;14.98;;;6.35;;
73980;SDS011;62348;51.412;5.436;2023-07-13T05:09:21;18.75;;;7.63;;
73980;SDS011;62348;51.412;5.436;2023-07-13T05:11:47;14.02;;;6.78;;
73980;SDS011;62348;51.412;5.436;2023-07-13T05:14:12;22.35;;;8.23;;
73980;SDS011;62348;51.412;5.436;2023-07-13T05:16:38;20.20;;;6.82;;
73980;SDS011;62348;51.412;5.436;2023-07-13T05:19:03;18.77;;;7.38;;
73980;SDS011;62348;51.412;5.436;2023-07-13T05:21:28;23.52;;;7.53;;
73980;SDS011;62348;51.412;5.436;2023-07-13T05:23:54;20.63;;;7.03;;
73980;SDS011;62348;51.412;5.436;2023-07-13T05:26:19;22.50;;;7.95;;
73980;SDS011;62348;51.412;5.436;2023-07-13T05:28:45;16.00;;;6.25;;
73980;SDS011;62348;51.412;5.436;2023-07-13T05:31:11;19.65;;;6.13;;
73980;SDS011;62348;51.412;5.436;2023-07-13T05:33:36;20.23;;;6.75;;
73980;SDS011;62348;51.412;5.436;2023-07-13T05:36:02;18.25;;;6.80;;
73980;SDS011;62348;51.412;5.436;2023-07-13T05:38:27;17.55;;;7.45;;
73980;SDS011;62348;51.412;5.436;2023-07-13T05:40:54;20.73;;;5.78;;
73980;SDS011;62348;51.412;5.436;2023-07-13T05:43:21;17.75;;;6.32;;
73980;SDS011;62348;51.412;5.436;2023-07-13T05:45:47;15.77;;;6.38;;
73980;SDS011;62348;51.412;5.436;2023-07-13T05:48:13;18.50;;;6.25;;
73980;SDS011;62348;51.412;5.436;2023-07-13T05:50:38;22.90;;;7.80;;
73980;SDS011;62348;51.412;5.436;2023-07-13T05:53:04;18.42;;;6.90;;
73980;SDS011;62348;51.412;5.436;2023-07-13T05:55:30;24.13;;;7.72;;
73980;SDS011;62348;51.412;5.436;2023-07-13T05:57:55;16.23;;;6.45;;
73980;SDS011;62348;51.412;5.436;2023-07-13T06:00:23;16.35;;;7.38;;
73980;SDS011;62348;51.412;5.436;2023-07-13T06:02:48;15.75;;;7.22;;
73980;SDS011;62348;51.412;5.436;2023-07-13T06:05:14;19.15;;;8.35;;
73980;SDS011;62348;51.412;5.436;2023-07-13T06:07:40;19.13;;;7.95;;
73980;SDS011;62348;51.412;5.436;2023-07-13T06:10:06;23.02;;;7.93;;
73980;SDS011;62348;51.412;5.436;2023-07-13T06:12:31;18.67;;;8.23;;
73980;SDS011;62348;51.412;5.436;2023-07-13T06:14:57;23.15;;;7.18;;
73980;SDS011;62348;51.412;5.436;2023-07-13T06:17:22;22.08;;;7.28;;
73980;SDS011;62348;51.412;5.436;2023-07-13T06:19:48;20.92;;;7.97;;
73980;SDS011;62348;51.412;5.436;2023-07-13T06:22:13;16.73;;;7.75;;
73980;SDS011;62348;51.412;5.436;2023-07-13T06:24:38;22.25;;;8.02;;
73980;SDS011;62348;51.412;5.436;2023-07-13T06:27:04;18.15;;;8.65;;
73980;SDS011;62348;51.412;5.436;2023-07-13T06:29:29;22.60;;;7.95;;
73980;SDS011;62348;51.412;5.436;2023-07-13T06:31:56;17.00;;;7.65;;
73980;SDS011;62348;51.412;5.436;2023-07-13T06:34:22;21.45;;;7.70;;
73980;SDS011;62348;51.412;5.436;2023-07-13T06:36:47;18.05;;;8.32;;
73980;SDS011;62348;51.412;5.436;2023-07-13T06:39:12;20.20;;;7.95;;
73980;SDS011;62348;51.412;5.436;2023-07-13T06:41:38;17.02;;;7.95;;
73980;SDS011;62348;51.412;5.436;2023-07-13T06:44:04;21.08;;;7.30;;
73980;SDS011;62348;51.412;5.436;2023-07-13T06:46:29;22.73;;;7.30;;
73980;SDS011;62348;51.412;5.436;2023-07-13T06:48:55;16.77;;;7.57;;
73980;SDS011;62348;51.412;5.436;2023-07-13T06:51:21;19.42;;;7.50;;
73980;SDS011;62348;51.412;5.436;2023-07-13T06:53:46;22.08;;;8.55;;
73980;SDS011;62348;51.412;5.436;2023-07-13T06:56:12;20.75;;;7.75;;
73980;SDS011;62348;51.412;5.436;2023-07-13T06:58:37;20.13;;;7.03;;
73980;SDS011;62348;51.412;5.436;2023-07-13T07:01:03;17.30;;;7.05;;
73980;SDS011;62348;51.412;5.436;2023-07-13T07:03:30;16.38;;;6.72;;
73980;SDS011;62348;51.412;5.436;2023-07-13T07:06:28;22.10;;;6.93;;
73980;SDS011;62348;51.412;5.436;2023-07-13T07:08:51;15.63;;;6.68;;
73980;SDS011;62348;51.412;5.436;2023-07-13T07:11:18;16.92;;;6.78;;
73980;SDS011;62348;51.412;5.436;2023-07-13T07:13:47;16.08;;;7.57;;
73980;SDS011;62348;51.412;5.436;2023-07-13T07:16:14;14.75;;;7.45;;
73980;SDS011;62348;51.412;5.436;2023-07-13T07:18:40;19.58;;;7.22;;
73980;SDS011;62348;51.412;5.436;2023-07-13T07:21:05;17.35;;;6.80;;
73980;SDS011;62348;51.412;5.436;2023-07-13T07:23:30;13.52;;;7.10;;
73980;SDS011;62348;51.412;5.436;2023-07-13T07:25:56;17.08;;;6.72;;
73980;SDS011;62348;51.412;5.436;2023-07-13T07:28:22;16.75;;;6.40;;
73980;SDS011;62348;51.412;5.436;2023-07-13T07:30:47;14.80;;;6.45;;
73980;SDS011;62348;51.412;5.436;2023-07-13T07:33:14;17.30;;;6.93;;
73980;SDS011;62348;51.412;5.436;2023-07-13T07:35:40;13.48;;;6.53;;
73980;SDS011;62348;51.412;5.436;2023-07-13T07:38:05;10.23;;;6.28;;
73980;SDS011;62348;51.412;5.436;2023-07-13T07:40:31;10.27;;;6.07;;
73980;SDS011;62348;51.412;5.436;2023-07-13T07:42:56;15.20;;;6.72;;
73980;SDS011;62348;51.412;5.436;2023-07-13T07:45:22;15.23;;;5.75;;
73980;SDS011;62348;51.412;5.436;2023-07-13T07:47:48;14.13;;;5.45;;
73980;SDS011;62348;51.412;5.436;2023-07-13T07:50:15;14.30;;;5.30;;
73980;SDS011;62348;51.412;5.436;2023-07-13T07:52:41;18.65;;;5.63;;
73980;SDS011;62348;51.412;5.436;2023-07-13T07:55:06;14.48;;;5.60;;
73980;SDS011;62348;51.412;5.436;2023-07-13T07:57:32;18.77;;;5.85;;
73980;SDS011;62348;51.412;5.436;2023-07-13T07:59:58;17.00;;;5.32;;
73980;SDS011;62348;51.412;5.436;2023-07-13T08:02:24;16.42;;;5.53;;
73980;SDS011;62348;51.412;5.436;2023-07-13T08:04:50;12.23;;;4.65;;
73980;SDS011;62348;51.412;5.436;2023-07-13T08:07:15;14.07;;;4.97;;
73980;SDS011;62348;51.412;5.436;2023-07-13T08:09:41;14.13;;;5.55;;
73980;SDS011;62348;51.412;5.436;2023-07-13T08:12:06;10.57;;;4.72;;
73980;SDS011;62348;51.412;5.436;2023-07-13T08:14:32;10.32;;;4.53;;
73980;SDS011;62348;51.412;5.436;2023-07-13T08:16:57;10.82;;;4.53;;
73980;SDS011;62348;51.412;5.436;2023-07-13T08:19:23;8.02;;;3.80;;
73980;SDS011;62348;51.412;5.436;2023-07-13T08:21:48;14.63;;;4.28;;
73980;SDS011;62348;51.412;5.436;2023-07-13T08:24:14;23.30;;;4.53;;
73980;SDS011;62348;51.412;5.436;2023-07-13T08:26:40;8.18;;;3.70;;
73980;SDS011;62348;51.412;5.436;2023-07-13T08:29:05;12.82;;;4.35;;
73980;SDS011;62348;51.412;5.436;2023-07-13T08:31:31;9.95;;;3.17;;
73980;SDS011;62348;51.412;5.436;2023-07-13T08:33:56;13.52;;;4.05;;
73980;SDS011;62348;51.412;5.436;2023-07-13T08:36:22;12.82;;;3.67;;
73980;SDS011;62348;51.412;5.436;2023-07-13T08:38:47;11.15;;;3.65;;
73980;SDS011;62348;51.412;5.436;2023-07-13T08:41:14;10.50;;;3.90;;
73980;SDS011;62348;51.412;5.436;2023-07-13T08:43:41;15.82;;;4.15;;
73980;SDS011;62348;51.412;5.436;2023-07-13T08:46:16;13.02;;;3.83;;
73980;SDS011;62348;51.412;5.436;2023-07-13T08:48:50;12.10;;;3.75;;
73980;SDS011;62348;51.412;5.436;2023-07-13T08:51:44;10.93;;;3.72;;
73980;SDS011;62348;51.412;5.436;2023-07-13T08:54:32;8.57;;;3.30;;
73980;SDS011;62348;51.412;5.436;2023-07-13T08:57:03;7.22;;;3.40;;
73980;SDS011;62348;51.412;5.436;2023-07-13T08:59:44;12.60;;;3.33;;
73980;SDS011;62348;51.412;5.436;2023-07-13T09:10:30;10.40;;;3.50;;
73980;SDS011;62348;51.412;5.436;2023-07-13T09:13:26;10.43;;;3.30;;
73980;SDS011;62348;51.412;5.436;2023-07-13T09:16:00;7.80;;;2.85;;
73980;SDS011;62348;51.412;5.436;2023-07-13T09:21:30;8.27;;;3.38;;
73980;SDS011;62348;51.412;5.436;2023-07-13T09:26:53;5.80;;;2.58;;
73980;SDS011;62348;51.412;5.436;2023-07-13T09:29:22;12.60;;;2.95;;
73980;SDS011;62348;51.412;5.436;2023-07-13T09:31:54;9.63;;;3.20;;
73980;SDS011;62348;51.412;5.436;2023-07-13T09:34:23;14.13;;;3.03;;
73980;SDS011;62348;51.412;5.436;2023-07-13T09:36:49;6.85;;;2.72;;
73980;SDS011;62348;51.412;5.436;2023-07-13T09:39:15;13.13;;;2.75;;
73980;SDS011;62348;51.412;5.436;2023-07-13T09:42:11;11.93;;;2.78;;
73980;SDS011;62348;51.412;5.436;2023-07-13T09:47:16;12.10;;;2.58;;
73980;SDS011;62348;51.412;5.436;2023-07-13T09:49:44;16.70;;;3.63;;
73980;SDS011;62348;51.412;5.436;2023-07-13T09:52:14;7.15;;;3.20;;
73980;SDS011;62348;51.412;5.436;2023-07-13T09:54:44;6.07;;;2.60;;
73980;SDS011;62348;51.412;5.436;2023-07-13T09:57:18;10.05;;;2.88;;
73980;SDS011;62348;51.412;5.436;2023-07-13T09:59:48;8.25;;;2.95;;
73980;SDS011;62348;51.412;5.436;2023-07-13T10:02:25;9.85;;;3.10;;
73980;SDS011;62348;51.412;5.436;2023-07-13T10:04:59;8.90;;;3.42;;
73980;SDS011;62348;51.412;5.436;2023-07-13T10:07:30;13.73;;;3.25;;
73980;SDS011;62348;51.412;5.436;2023-07-13T10:09:58;9.15;;;2.67;;
73980;SDS011;62348;51.412;5.436;2023-07-13T10:12:28;12.15;;;3.17;;
73980;SDS011;62348;51.412;5.436;2023-07-13T10:15:00;8.63;;;2.65;;
73980;SDS011;62348;51.412;5.436;2023-07-13T10:17:29;9.05;;;2.85;;
73980;SDS011;62348;51.412;5.436;2023-07-13T10:20:01;9.68;;;2.75;;
73980;SDS011;62348;51.412;5.436;2023-07-13T10:25:20;7.90;;;2.40;;
73980;SDS011;62348;51.412;5.436;2023-07-13T10:27:51;6.53;;;1.95;;
73980;SDS011;62348;51.412;5.436;2023-07-13T10:30:29;5.00;;;1.98;;
73980;SDS011;62348;51.412;5.436;2023-07-13T10:33:01;8.43;;;2.25;;
73980;SDS011;62348;51.412;5.436;2023-07-13T10:35:28;7.75;;;3.15;;
73980;SDS011;62348;51.412;5.436;2023-07-13T10:38:01;5.78;;;2.28;;
73980;SDS011;62348;51.412;5.436;2023-07-13T10:40:35;3.88;;;1.90;;
73980;SDS011;62348;51.412;5.436;2023-07-13T10:43:06;7.57;;;2.28;;
73980;SDS011;62348;51.412;5.436;2023-07-13T10:45:39;10.27;;;2.15;;
73980;SDS011;62348;51.412;5.436;2023-07-13T10:48:05;10.38;;;2.63;;
73980;SDS011;62348;51.412;5.436;2023-07-13T10:50:37;9.93;;;2.60;;
73980;SDS011;62348;51.412;5.436;2023-07-13T10:58:37;6.90;;;2.35;;
73980;SDS011;62348;51.412;5.436;2023-07-13T11:01:14;11.68;;;2.97;;
73980;SDS011;62348;51.412;5.436;2023-07-13T11:03:49;7.22;;;2.50;;
73980;SDS011;62348;51.412;5.436;2023-07-13T11:08:51;5.97;;;2.42;;
73980;SDS011;62348;51.412;5.436;2023-07-13T11:11:31;4.78;;;1.98;;
73980;SDS011;62348;51.412;5.436;2023-07-13T11:14:03;6.93;;;2.03;;
73980;SDS011;62348;51.412;5.436;2023-07-13T11:16:47;3.92;;;2.20;;
73980;SDS011;62348;51.412;5.436;2023-07-13T11:22:01;7.22;;;2.85;;
73980;SDS011;62348;51.412;5.436;2023-07-13T11:25:20;6.38;;;2.65;;
73980;SDS011;62348;51.412;5.436;2023-07-13T11:27:51;7.85;;;2.22;;
73980;SDS011;62348;51.412;5.436;2023-07-13T11:36:23;5.55;;;2.30;;
73980;SDS011;62348;51.412;5.436;2023-07-13T11:41:05;5.55;;;2.03;;
73980;SDS011;62348;51.412;5.436;2023-07-13T11:43:37;7.55;;;2.55;;
73980;SDS011;62348;51.412;5.436;2023-07-13T11:46:16;5.85;;;1.80;;
73980;SDS011;62348;51.412;5.436;2023-07-13T11:48:59;4.50;;;1.95;;
73980;SDS011;62348;51.412;5.436;2023-07-13T11:51:28;7.53;;;2.22;;
73980;SDS011;62348;51.412;5.436;2023-07-13T11:53:57;4.68;;;2.22;;
73980;SDS011;62348;51.412;5.436;2023-07-13T11:56:42;7.72;;;2.10;;
73980;SDS011;62348;51.412;5.436;2023-07-13T11:59:07;10.57;;;2.40;;
73980;SDS011;62348;51.412;5.436;2023-07-13T12:01:40;6.28;;;2.03;;
73980;SDS011;62348;51.412;5.436;2023-07-13T12:04:13;3.95;;;1.85;;
73980;SDS011;62348;51.412;5.436;2023-07-13T12:09:42;6.80;;;2.10;;
73980;SDS011;62348;51.412;5.436;2023-07-13T12:12:16;14.00;;;2.30;;
73980;SDS011;62348;51.412;5.436;2023-07-13T12:14:43;6.72;;;1.80;;
73980;SDS011;62348;51.412;5.436;2023-07-13T12:17:17;6.82;;;1.92;;
73980;SDS011;62348;51.412;5.436;2023-07-13T12:19:45;4.82;;;2.15;;
73980;SDS011;62348;51.412;5.436;2023-07-13T12:22:12;2.95;;;1.83;;
73980;SDS011;62348;51.412;5.436;2023-07-13T12:24:40;3.78;;;1.85;;
73980;SDS011;62348;51.412;5.436;2023-07-13T12:27:14;8.95;;;2.63;;
73980;SDS011;62348;51.412;5.436;2023-07-13T12:30:01;6.18;;;2.38;;
73980;SDS011;62348;51.412;5.436;2023-07-13T12:32:28;8.38;;;2.08;;
73980;SDS011;62348;51.412;5.436;2023-07-13T12:34:56;9.15;;;2.15;;
73980;SDS011;62348;51.412;5.436;2023-07-13T12:37:28;6.47;;;2.47;;
73980;SDS011;62348;51.412;5.436;2023-07-13T12:39:55;6.35;;;2.35;;
73980;SDS011;62348;51.412;5.436;2023-07-13T12:45:03;3.28;;;1.70;;
73980;SDS011;62348;51.412;5.436;2023-07-13T12:47:43;5.55;;;2.22;;
73980;SDS011;62348;51.412;5.436;2023-07-13T12:50:16;6.63;;;1.70;;
73980;SDS011;62348;51.412;5.436;2023-07-13T12:52:44;4.72;;;1.98;;
73980;SDS011;62348;51.412;5.436;2023-07-13T12:55:17;5.50;;;1.90;;
73980;SDS011;62348;51.412;5.436;2023-07-13T12:57:47;6.20;;;1.90;;
73980;SDS011;62348;51.412;5.436;2023-07-13T13:02:53;3.35;;;1.92;;
73980;SDS011;62348;51.412;5.436;2023-07-13T13:05:21;3.65;;;1.90;;
73980;SDS011;62348;51.412;5.436;2023-07-13T13:07:50;4.57;;;1.98;;
73980;SDS011;62348;51.412;5.436;2023-07-13T13:10:15;7.40;;;2.60;;
73980;SDS011;62348;51.412;5.436;2023-07-13T13:12:41;7.43;;;2.70;;
73980;SDS011;62348;51.412;5.436;2023-07-13T13:15:10;7.38;;;3.00;;
73980;SDS011;62348;51.412;5.436;2023-07-13T13:17:39;8.27;;;2.95;;
73980;SDS011;62348;51.412;5.436;2023-07-13T13:20:14;4.53;;;2.60;;
73980;SDS011;62348;51.412;5.436;2023-07-13T13:22:42;9.43;;;4.20;;
73980;SDS011;62348;51.412;5.436;2023-07-13T13:25:10;6.35;;;3.13;;
73980;SDS011;62348;51.412;5.436;2023-07-13T13:27:36;5.22;;;2.92;;
73980;SDS011;62348;51.412;5.436;2023-07-13T13:30:02;8.00;;;3.70;;
73980;SDS011;62348;51.412;5.436;2023-07-13T13:32:28;5.68;;;3.30;;
73980;SDS011;62348;51.412;5.436;2023-07-13T13:34:53;5.35;;;3.35;;
73980;SDS011;62348;51.412;5.436;2023-07-13T13:37:20;7.15;;;3.30;;
73980;SDS011;62348;51.412;5.436;2023-07-13T13:39:47;8.85;;;3.72;;
73980;SDS011;62348;51.412;5.436;2023-07-13T13:42:14;6.75;;;3.67;;
73980;SDS011;62348;51.412;5.436;2023-07-13T13:44:39;4.85;;;2.58;;
73980;SDS011;62348;51.412;5.436;2023-07-13T13:47:19;6.25;;;2.63;;
73980;SDS011;62348;51.412;5.436;2023-07-13T13:49:54;6.20;;;2.72;;
73980;SDS011;62348;51.412;5.436;2023-07-13T13:52:20;6.40;;;3.00;;
73980;SDS011;62348;51.412;5.436;2023-07-13T13:54:45;3.60;;;2.53;;
73980;SDS011;62348;51.412;5.436;2023-07-13T13:57:10;5.78;;;2.85;;
73980;SDS011;62348;51.412;5.436;2023-07-13T13:59:37;5.93;;;2.40;;
73980;SDS011;62348;51.412;5.436;2023-07-13T14:02:11;3.45;;;2.45;;
73980;SDS011;62348;51.412;5.436;2023-07-13T14:04:51;7.63;;;2.80;;
73980;SDS011;62348;51.412;5.436;2023-07-13T14:07:20;8.70;;;2.50;;
73980;SDS011;62348;51.412;5.436;2023-07-13T14:09:45;6.15;;;2.45;;
73980;SDS011;62348;51.412;5.436;2023-07-13T14:12:11;6.60;;;2.40;;
73980;SDS011;62348;51.412;5.436;2023-07-13T14:14:37;4.40;;;2.30;;
73980;SDS011;62348;51.412;5.436;2023-07-13T14:17:02;6.82;;;1.83;;
73980;SDS011;62348;51.412;5.436;2023-07-13T14:19:29;7.45;;;2.40;;
73980;SDS011;62348;51.412;5.436;2023-07-13T14:21:55;6.55;;;1.75;;
73980;SDS011;62348;51.412;5.436;2023-07-13T14:24:20;4.68;;;2.03;;
73980;SDS011;62348;51.412;5.436;2023-07-13T14:26:46;5.18;;;1.98;;
73980;SDS011;62348;51.412;5.436;2023-07-13T14:29:17;7.57;;;2.47;;
73980;SDS011;62348;51.412;5.436;2023-07-13T14:31:44;3.90;;;2.20;;
73980;SDS011;62348;51.412;5.436;2023-07-13T14:34:10;2.72;;;1.80;;
73980;SDS011;62348;51.412;5.436;2023-07-13T14:36:38;4.03;;;1.60;;
73980;SDS011;62348;51.412;5.436;2023-07-13T14:39:18;2.80;;;1.70;;
73980;SDS011;62348;51.412;5.436;2023-07-13T14:41:49;5.55;;;1.80;;
73980;SDS011;62348;51.412;5.436;2023-07-13T14:44:16;3.33;;;2.20;;
73980;SDS011;62348;51.412;5.436;2023-07-13T14:46:43;2.75;;;1.50;;
73980;SDS011;62348;51.412;5.436;2023-07-13T14:51:48;4.50;;;1.60;;
73980;SDS011;62348;51.412;5.436;2023-07-13T14:54:14;3.28;;;1.40;;
73980;SDS011;62348;51.412;5.436;2023-07-13T14:56:39;3.22;;;1.92;;
73980;SDS011;62348;51.412;5.436;2023-07-13T14:59:05;5.70;;;1.38;;
73980;SDS011;62348;51.412;5.436;2023-07-13T15:01:32;3.92;;;2.03;;
73980;SDS011;62348;51.412;5.436;2023-07-13T15:03:59;1.77;;;1.50;;
73980;SDS011;62348;51.412;5.436;2023-07-13T15:06:25;5.70;;;1.67;;
73980;SDS011;62348;51.412;5.436;2023-07-13T15:08:51;2.60;;;1.50;;
73980;SDS011;62348;51.412;5.436;2023-07-13T15:11:16;3.45;;;1.60;;
73980;SDS011;62348;51.412;5.436;2023-07-13T15:13:42;3.17;;;1.40;;
73980;SDS011;62348;51.412;5.436;2023-07-13T15:16:16;2.38;;;1.30;;
73980;SDS011;62348;51.412;5.436;2023-07-13T15:18:46;2.75;;;1.45;;
73980;SDS011;62348;51.412;5.436;2023-07-13T15:21:14;3.13;;;1.77;;
73980;SDS011;62348;51.412;5.436;2023-07-13T15:23:45;4.90;;;1.90;;
73980;SDS011;62348;51.412;5.436;2023-07-13T15:26:14;3.40;;;1.80;;
73980;SDS011;62348;51.412;5.436;2023-07-13T15:28:44;3.55;;;1.63;;
73980;SDS011;62348;51.412;5.436;2023-07-13T15:31:21;2.72;;;1.60;;
73980;SDS011;62348;51.412;5.436;2023-07-13T15:33:49;3.55;;;1.67;;
73980;SDS011;62348;51.412;5.436;2023-07-13T15:36:16;3.65;;;2.40;;
73980;SDS011;62348;51.412;5.436;2023-07-13T15:38:42;4.80;;;2.15;;
73980;SDS011;62348;51.412;5.436;2023-07-13T15:41:20;5.07;;;2.58;;